Pagina principale
METAR-TAF:

METAR-TAF

Aeroporti :

Aeroporto di Conakry

Conakry, Guinea

latitudine: 09-34N, longitudine: 013-37W, altezza: 26 m

Osservazione

Il bollettino è stato emesso 1 ora e 8 minuti fa, alle 12:00 UTC
Vento 6 kt da ovest
Temperature 31°C
Umidità 43%
Pressione 1013 hPa
Visibilità: 5000 m
foschia

METAR: GUCY 171200Z 27006KT 5000 HZ NSC 31/17 Q1013 NOSIG

Ora: 13:08 (13:08 UTC)

Previsione

Il bollettino è stato emesso 2 ore e 8 minuti fa, alle 11:00 UTC
Previsione valida dal 17 alle 12 UTC al 18 alle 18 UTC
Vento 6 kt da nord-ovest
Visibilità: 5000 m
Poco nuvoloso ad un'altezza di 1500 ft
Nubi sparse ad un'altezza di 11000 ft
foschia
Probabilità 30% :
Temporaneamente
dal 18 alle 03 UTC al 18 alle 09 UTC
Vento 2 kt da direzioni variabili
Visibilità: 3000 m
foschia

TAF: GUCY 171100Z 1712/1818 32006KT 5000 HZ FEW015 SCT110 PROB30 TEMPO 1803/1809 VRB02KT 3000 BR NSC

Osservazioni e previsioni meteorologiche di più di 4000 aeroporti (messaggi METAR e TAF).

Le stazioni disponibili sono rappresentate dai dischi gialli e rossi sulla carta.

Puntare il mouse per vedere il nome della stazione.

Clicca sopra per visualizzare le osservazioni e previsioni meteorologiche.

Per cambiare la mappa : fare clic sui pulsanti verdi con una croce nera per ingrandire, il pulsante verde con un trattino per diminuire, o sulla freccia verde per le mappe adiacenti.


METAR-TAF: